createdAt,value
2023-05-12T00:00:17.396Z,10.34
2023-05-12T00:01:17.314Z,10.21
2023-05-12T00:02:17.320Z,10.49
2023-05-12T00:03:17.442Z,10.00
2023-05-12T00:04:17.377Z,9.94
2023-05-12T00:05:17.445Z,10.50
2023-05-12T00:06:17.447Z,10.26
2023-05-12T00:07:17.453Z,10.90
2023-05-12T00:08:17.459Z,11.43
2023-05-12T00:09:17.496Z,13.31
2023-05-12T00:10:17.591Z,13.25
2023-05-12T00:11:17.513Z,14.10
2023-05-12T00:12:17.524Z,15.43
2023-05-12T00:13:17.563Z,15.37
2023-05-12T00:14:17.523Z,15.95
2023-05-12T00:15:17.564Z,15.36
2023-05-12T00:16:17.616Z,13.77
2023-05-12T00:17:17.594Z,15.00
2023-05-12T00:18:17.588Z,14.34
2023-05-12T00:19:17.606Z,13.21
2023-05-12T00:20:17.965Z,12.58
2023-05-12T00:21:17.710Z,13.14
2023-05-12T00:22:17.740Z,12.25
2023-05-12T00:23:17.713Z,12.58
2023-05-12T00:24:17.813Z,12.05
2023-05-12T00:25:17.856Z,12.39
2023-05-12T00:26:17.889Z,11.33
2023-05-12T00:27:18.082Z,12.01
2023-05-12T00:28:17.921Z,12.00
2023-05-12T00:29:17.961Z,11.52
2023-05-12T00:30:18.302Z,12.11
2023-05-12T00:31:17.992Z,11.20
2023-05-12T00:32:18.042Z,12.37
2023-05-12T00:33:18.124Z,11.44
2023-05-12T00:34:18.095Z,11.78
2023-05-12T00:35:18.096Z,12.09
2023-05-12T00:36:18.105Z,10.98
2023-05-12T00:37:18.159Z,10.26
2023-05-12T00:38:18.181Z,11.30
2023-05-12T00:39:18.249Z,11.24
2023-05-12T00:40:18.540Z,9.97
2023-05-12T00:41:18.315Z,9.96
2023-05-12T00:42:18.340Z,9.73
2023-05-12T00:43:18.383Z,10.11
2023-05-12T00:44:18.400Z,10.13
2023-05-12T00:45:18.446Z,10.99
2023-05-12T00:46:18.585Z,10.41
2023-05-12T00:47:18.558Z,9.68
2023-05-12T00:48:18.554Z,9.27
2023-05-12T00:49:18.605Z,9.89
2023-05-12T00:50:19.000Z,10.63
2023-05-12T00:51:18.648Z,9.45
2023-05-12T00:52:18.662Z,8.50
2023-05-12T00:53:18.658Z,10.52
2023-05-12T00:54:18.714Z,8.92
2023-05-12T00:55:18.756Z,10.27
2023-05-12T00:56:18.750Z,9.74
2023-05-12T00:57:18.775Z,10.57
2023-05-12T00:58:18.791Z,10.65
2023-05-12T00:59:18.803Z,10.26
2023-05-12T01:00:19.065Z,10.64
2023-05-12T01:01:19.079Z,10.21
2023-05-12T01:02:19.028Z,11.06
2023-05-12T01:03:19.091Z,11.09
2023-05-12T01:04:19.010Z,11.05
2023-05-12T01:05:19.014Z,11.51
2023-05-12T01:06:19.012Z,11.02
2023-05-12T01:07:19.086Z,11.44
2023-05-12T01:08:19.098Z,13.11
2023-05-12T01:09:19.164Z,12.62
2023-05-12T01:10:19.369Z,11.78
2023-05-12T01:11:19.206Z,12.18
2023-05-12T01:12:19.252Z,12.83
2023-05-12T01:13:19.290Z,12.64
2023-05-12T01:14:19.337Z,12.18
2023-05-12T01:15:19.332Z,12.59
2023-05-12T01:16:19.361Z,12.38
2023-05-12T01:17:19.410Z,11.95
2023-05-12T01:18:19.522Z,11.71
2023-05-12T01:19:19.479Z,11.60
2023-05-12T01:20:19.665Z,11.66
2023-05-12T01:21:19.456Z,11.23
2023-05-12T01:22:19.535Z,11.65
2023-05-12T01:23:19.536Z,12.08
2023-05-12T01:24:19.595Z,11.09
2023-05-12T01:25:19.586Z,12.15
2023-05-12T01:26:19.615Z,11.64
2023-05-12T01:27:19.614Z,11.66
2023-05-12T01:28:19.663Z,11.34
2023-05-12T01:29:19.747Z,10.65
2023-05-12T01:30:20.112Z,11.44
2023-05-12T01:31:21.274Z,10.37
2023-05-12T01:32:19.795Z,10.44
2023-05-12T01:33:19.849Z,10.52
2023-05-12T01:34:19.905Z,11.26
2023-05-12T01:35:19.975Z,10.37
2023-05-12T01:36:19.987Z,11.28
2023-05-12T01:37:20.027Z,10.70
2023-05-12T01:38:20.043Z,10.49
2023-05-12T01:39:20.067Z,10.55
2023-05-12T01:40:20.295Z,10.62
2023-05-12T01:41:20.070Z,10.31
2023-05-12T01:42:20.128Z,10.53
2023-05-12T01:43:22.202Z,10.03
2023-05-12T01:44:20.236Z,10.72
2023-05-12T01:45:20.237Z,11.19
2023-05-12T01:46:20.291Z,10.37
2023-05-12T01:47:20.299Z,10.51
2023-05-12T01:48:20.296Z,10.25
2023-05-12T01:49:20.292Z,10.96
2023-05-12T01:50:20.509Z,10.90
2023-05-12T01:51:20.405Z,10.06
2023-05-12T01:52:20.444Z,11.51
2023-05-12T01:53:20.455Z,9.65
2023-05-12T01:54:20.521Z,10.33
2023-05-12T01:55:20.567Z,9.56
2023-05-12T01:56:20.621Z,9.50
2023-05-12T01:57:20.626Z,9.46
2023-05-12T01:58:20.619Z,10.13
2023-05-12T01:59:20.671Z,9.56
2023-05-12T02:00:20.909Z,9.58
2023-05-12T02:01:20.758Z,9.38
2023-05-12T02:02:20.786Z,9.57
2023-05-12T02:03:20.857Z,9.54
2023-05-12T02:04:20.838Z,9.21
2023-05-12T02:05:20.859Z,10.26
2023-05-12T02:06:20.919Z,10.15
2023-05-12T02:07:20.925Z,10.19
2023-05-12T02:08:20.972Z,9.85
2023-05-12T02:09:20.969Z,10.35
2023-05-12T02:10:21.196Z,9.79
2023-05-12T02:11:21.027Z,9.42
2023-05-12T02:12:20.998Z,9.93
2023-05-12T02:13:21.031Z,10.05
2023-05-12T02:14:21.017Z,9.81
2023-05-12T02:15:21.058Z,8.92
2023-05-12T02:16:21.115Z,9.51
2023-05-12T02:17:21.082Z,9.54
2023-05-12T02:18:21.113Z,9.27
2023-05-12T02:19:21.131Z,8.55
2023-05-12T02:20:21.359Z,8.81
2023-05-12T02:21:21.197Z,9.06
2023-05-12T02:22:21.241Z,8.95
2023-05-12T02:23:21.302Z,9.18
2023-05-12T02:24:21.383Z,8.91
2023-05-12T02:25:21.396Z,9.19
2023-05-12T02:26:21.370Z,8.33
2023-05-12T02:27:21.441Z,9.68
2023-05-12T02:28:21.528Z,8.55
2023-05-12T02:29:21.559Z,8.78
2023-05-12T02:30:21.772Z,9.40
2023-05-12T02:31:21.613Z,9.11
2023-05-12T02:32:21.705Z,9.38
2023-05-12T02:33:21.656Z,9.23
2023-05-12T02:34:21.697Z,8.34
2023-05-12T02:35:21.781Z,7.80
2023-05-12T02:36:21.782Z,8.28
2023-05-12T02:37:21.784Z,9.00
2023-05-12T02:38:21.797Z,8.76
2023-05-12T02:39:21.799Z,7.99
2023-05-12T02:40:21.976Z,9.06
2023-05-12T02:41:21.841Z,8.39
2023-05-12T02:42:21.928Z,8.09
2023-05-12T02:43:21.949Z,8.62
2023-05-12T02:44:21.930Z,8.78
2023-05-12T02:45:21.980Z,9.12
2023-05-12T02:46:22.059Z,9.23
2023-05-12T02:47:22.085Z,8.23
2023-05-12T02:48:22.064Z,8.70
2023-05-12T02:49:22.039Z,8.13
2023-05-12T02:50:22.278Z,8.39
2023-05-12T02:51:22.088Z,8.51
2023-05-12T02:52:22.057Z,8.54
2023-05-12T02:53:22.105Z,8.51
2023-05-12T02:54:22.152Z,8.50
2023-05-12T02:55:22.146Z,8.53
2023-05-12T02:56:22.174Z,7.67
2023-05-12T02:57:22.224Z,9.56
2023-05-12T02:58:22.309Z,7.77
2023-05-12T02:59:22.333Z,8.95
2023-05-12T03:00:22.404Z,8.56
2023-05-12T03:01:22.435Z,8.60
2023-05-12T03:02:22.493Z,8.83
2023-05-12T03:03:22.513Z,8.48
2023-05-12T03:04:22.515Z,8.24
2023-05-12T03:05:22.519Z,7.77
2023-05-12T03:06:22.526Z,8.82
2023-05-12T03:07:22.561Z,7.91
2023-05-12T03:08:22.547Z,7.78
2023-05-12T03:09:22.532Z,7.49
2023-05-12T03:10:22.700Z,7.80
2023-05-12T03:11:22.570Z,8.09
2023-05-12T03:12:22.574Z,9.03
2023-05-12T03:13:22.660Z,7.90
2023-05-12T03:14:22.626Z,7.98
2023-05-12T03:15:22.654Z,7.93
2023-05-12T03:16:22.738Z,8.06
2023-05-12T03:17:22.764Z,7.91
2023-05-12T03:18:22.820Z,7.58
2023-05-12T03:19:22.700Z,6.96
2023-05-12T03:20:22.899Z,7.45
2023-05-12T03:21:22.718Z,8.14
2023-05-12T03:22:22.815Z,7.42
2023-05-12T03:23:22.746Z,7.26
2023-05-12T03:24:22.760Z,8.13
2023-05-12T03:25:22.766Z,8.37
2023-05-12T03:26:22.804Z,8.27
2023-05-12T03:27:22.835Z,7.77
2023-05-12T03:28:22.901Z,8.60
2023-05-12T03:29:22.934Z,8.78
2023-05-12T03:30:22.943Z,8.27
2023-05-12T03:31:23.004Z,8.08
2023-05-12T03:32:23.081Z,9.09
2023-05-12T03:33:23.067Z,9.19
2023-05-12T03:34:23.118Z,9.14
2023-05-12T03:35:23.143Z,8.65
2023-05-12T03:36:23.173Z,8.49
2023-05-12T03:37:23.190Z,8.72
2023-05-12T03:38:23.213Z,9.64
2023-05-12T03:39:23.279Z,9.53
2023-05-12T03:40:23.464Z,10.41
2023-05-12T03:41:23.317Z,9.90
2023-05-12T03:42:23.393Z,9.09
2023-05-12T03:43:23.394Z,9.43
2023-05-12T03:44:23.431Z,8.57
2023-05-12T03:45:23.457Z,9.78
2023-05-12T03:46:23.513Z,9.15
2023-05-12T03:47:23.731Z,9.51
2023-05-12T03:48:23.635Z,8.88
2023-05-12T03:49:24.421Z,10.09
2023-05-12T03:50:23.574Z,9.87
2023-05-12T03:51:23.582Z,9.88
2023-05-12T03:52:23.590Z,9.31
2023-05-12T03:53:23.600Z,9.28
2023-05-12T03:54:23.674Z,9.55
2023-05-12T03:55:23.648Z,9.82
2023-05-12T03:56:23.676Z,9.64
2023-05-12T03:57:23.742Z,10.27
2023-05-12T03:58:23.723Z,10.01
2023-05-12T03:59:23.747Z,10.34
2023-05-12T04:00:23.771Z,9.33
2023-05-12T04:01:23.812Z,9.88
2023-05-12T04:02:23.938Z,9.94
2023-05-12T04:03:23.934Z,9.63
2023-05-12T04:04:23.871Z,9.33
2023-05-12T04:05:23.901Z,8.72
2023-05-12T04:06:23.947Z,9.32
2023-05-12T04:07:23.987Z,9.45
2023-05-12T04:08:24.067Z,9.69
2023-05-12T04:09:24.100Z,9.19
2023-05-12T04:10:24.116Z,10.01
2023-05-12T04:11:24.145Z,9.62
2023-05-12T04:12:24.226Z,10.49
2023-05-12T04:13:24.273Z,9.65
2023-05-12T04:14:31.856Z,9.84
2023-05-12T04:15:25.260Z,10.75
2023-05-12T04:16:24.323Z,10.52
2023-05-12T04:17:24.308Z,10.58
2023-05-12T04:18:24.299Z,11.95
2023-05-12T04:19:24.225Z,9.74
2023-05-12T04:20:24.286Z,11.06
2023-05-12T04:21:24.225Z,10.65
2023-05-12T04:22:25.743Z,10.92
2023-05-12T04:23:24.222Z,10.94
2023-05-12T04:24:24.217Z,10.69
2023-05-12T04:25:24.194Z,9.85
2023-05-12T04:26:24.209Z,9.45
2023-05-12T04:27:24.294Z,9.96
2023-05-12T04:28:24.312Z,9.39
2023-05-12T04:29:24.348Z,8.84
2023-05-12T04:30:24.383Z,8.84
2023-05-12T04:31:24.441Z,7.90
2023-05-12T04:32:24.443Z,8.18
2023-05-12T04:33:24.430Z,6.82
2023-05-12T04:34:24.433Z,8.04
2023-05-12T04:35:24.438Z,7.89
2023-05-12T04:36:24.494Z,8.21
2023-05-12T04:37:24.533Z,8.15
2023-05-12T04:38:24.537Z,8.14
2023-05-12T04:39:24.607Z,7.88
2023-05-12T04:40:24.609Z,7.47
2023-05-12T04:41:24.714Z,7.65
2023-05-12T04:42:24.711Z,7.12
2023-05-12T04:44:24.731Z,6.85
2023-05-12T04:45:24.747Z,7.36
2023-05-12T04:46:24.766Z,7.10
2023-05-12T04:47:24.711Z,7.60
2023-05-12T04:48:24.706Z,7.53
2023-05-12T04:49:24.693Z,7.03
2023-05-12T04:50:24.681Z,6.66
2023-05-12T04:51:24.689Z,7.44
2023-05-12T04:52:24.955Z,6.94
2023-05-12T04:53:24.642Z,7.15
2023-05-12T04:54:24.659Z,6.57
2023-05-12T04:55:24.644Z,7.33
2023-05-12T04:56:24.623Z,6.51
2023-05-12T04:57:24.668Z,7.80
2023-05-12T04:58:24.636Z,7.71
2023-05-12T04:59:24.636Z,8.00
2023-05-12T05:00:24.635Z,7.85
2023-05-12T05:01:24.639Z,7.92
2023-05-12T05:02:24.721Z,8.07
2023-05-12T05:03:24.686Z,8.69
2023-05-12T05:04:24.594Z,8.15
2023-05-12T05:05:24.562Z,8.25
2023-05-12T05:06:24.563Z,8.41
2023-05-12T05:07:24.566Z,9.50
2023-05-12T05:08:24.595Z,9.36
2023-05-12T05:09:24.527Z,8.64
2023-05-12T05:10:24.547Z,8.11
2023-05-12T05:11:24.526Z,8.20
2023-05-12T05:12:24.547Z,7.50
2023-05-12T05:13:24.547Z,8.84
2023-05-12T05:14:24.514Z,8.75
2023-05-12T05:15:24.520Z,8.37
2023-05-12T05:16:24.698Z,7.90
2023-05-12T05:17:24.514Z,8.59
2023-05-12T05:18:24.730Z,8.03
2023-05-12T05:19:36.238Z,7.88
2023-05-12T05:20:28.928Z,8.38
2023-05-12T05:21:24.468Z,8.04
2023-05-12T05:22:24.465Z,7.60
2023-05-12T05:23:24.486Z,8.41
2023-05-12T05:24:24.476Z,7.59
2023-05-12T05:25:24.426Z,7.31
2023-05-12T05:26:24.428Z,8.49
2023-05-12T05:27:24.452Z,8.26
2023-05-12T05:28:24.437Z,7.61
2023-05-12T05:29:24.465Z,8.99
2023-05-12T05:30:24.411Z,8.06
2023-05-12T05:31:24.456Z,8.76
2023-05-12T05:32:24.574Z,8.18
2023-05-12T05:33:24.397Z,7.86
2023-05-12T05:34:24.398Z,8.03
2023-05-12T05:35:24.374Z,8.43
2023-05-12T05:36:24.385Z,8.67
2023-05-12T05:37:24.389Z,8.36
2023-05-12T05:38:24.404Z,8.33
2023-05-12T05:39:24.396Z,8.89
2023-05-12T05:40:24.370Z,9.04
2023-05-12T05:41:24.371Z,9.19
2023-05-12T05:42:24.383Z,8.76
2023-05-12T05:43:24.324Z,9.25
2023-05-12T05:44:24.328Z,8.48
2023-05-12T05:45:25.132Z,8.79
2023-05-12T05:46:24.393Z,8.42
2023-05-12T05:47:24.366Z,8.23
2023-05-12T05:48:24.482Z,8.69
2023-05-12T05:49:24.369Z,7.84
2023-05-12T05:50:24.339Z,8.35
2023-05-12T05:51:24.375Z,7.95
2023-05-12T05:52:24.367Z,8.29
2023-05-12T05:53:24.378Z,8.78
2023-05-12T05:54:24.452Z,8.30
2023-05-12T05:55:24.559Z,8.02
2023-05-12T05:56:24.981Z,9.11
2023-05-12T05:57:24.979Z,7.98
2023-05-12T05:58:25.007Z,8.12
2023-05-12T05:59:24.823Z,7.99
2023-05-12T06:00:24.962Z,8.00
2023-05-12T06:01:24.893Z,7.83
2023-05-12T06:02:25.086Z,9.70
2023-05-12T06:03:25.063Z,9.01
2023-05-12T06:04:25.160Z,8.07
2023-05-12T06:05:25.154Z,7.91
2023-05-12T06:06:25.169Z,8.08
2023-05-12T06:07:25.144Z,8.31
2023-05-12T06:08:25.250Z,7.92
2023-05-12T06:09:25.259Z,8.76
2023-05-12T06:10:25.261Z,8.22
2023-05-12T06:11:25.261Z,8.35
2023-05-12T06:12:25.316Z,8.67
2023-05-12T06:13:25.333Z,7.48
2023-05-12T06:14:25.395Z,8.59
2023-05-12T06:15:25.416Z,8.21
2023-05-12T06:16:25.449Z,7.85
2023-05-12T06:17:25.512Z,7.72
2023-05-12T06:18:25.547Z,7.87
2023-05-12T06:19:25.527Z,7.75
2023-05-12T06:20:25.534Z,9.33
2023-05-12T06:21:25.590Z,8.85
2023-05-12T06:22:25.599Z,8.37
2023-05-12T06:23:25.598Z,9.43
2023-05-12T06:24:25.638Z,9.35
2023-05-12T06:25:25.675Z,8.67
2023-05-12T06:26:25.709Z,8.01
2023-05-12T06:27:25.704Z,8.25
2023-05-12T06:28:25.712Z,8.97
2023-05-12T06:29:25.790Z,8.78
2023-05-12T06:30:25.769Z,10.86
2023-05-12T06:31:25.839Z,9.83
2023-05-12T06:32:25.863Z,7.55
2023-05-12T06:33:25.821Z,9.99
2023-05-12T06:34:25.830Z,7.70
2023-05-12T06:35:25.848Z,7.23
2023-05-12T06:36:25.854Z,7.43
2023-05-12T06:37:25.876Z,7.21
2023-05-12T06:38:25.911Z,8.02
2023-05-12T06:39:25.909Z,7.53
2023-05-12T06:40:25.961Z,7.51
2023-05-12T06:41:25.978Z,7.27
2023-05-12T06:42:26.029Z,7.32
2023-05-12T06:43:26.498Z,7.89
2023-05-12T06:44:26.094Z,7.31
2023-05-12T06:45:26.093Z,6.89
2023-05-12T06:46:26.152Z,7.77
2023-05-12T06:47:26.177Z,7.60
2023-05-12T06:48:26.220Z,7.14
2023-05-12T06:49:26.233Z,7.10
2023-05-12T06:50:26.261Z,7.14
2023-05-12T06:51:26.354Z,6.35
2023-05-12T06:52:26.292Z,6.58
2023-05-12T06:53:26.260Z,7.11
2023-05-12T06:54:26.294Z,6.81
2023-05-12T06:55:26.301Z,6.69
2023-05-12T06:56:26.340Z,6.27
2023-05-12T06:57:26.349Z,6.91
2023-05-12T06:58:26.512Z,6.92
2023-05-12T06:59:26.391Z,6.42
2023-05-12T07:00:26.461Z,6.80
2023-05-12T07:01:26.484Z,6.73
2023-05-12T07:02:26.502Z,6.65
2023-05-12T07:03:26.477Z,6.62
2023-05-12T07:04:26.569Z,6.50
2023-05-12T07:05:26.520Z,5.52
2023-05-12T07:06:26.549Z,7.38
2023-05-12T07:07:26.547Z,6.29
2023-05-12T07:08:26.584Z,5.97
2023-05-12T07:09:26.597Z,6.30
2023-05-12T07:10:26.649Z,6.20
2023-05-12T07:11:26.678Z,6.50
2023-05-12T07:12:26.721Z,6.72
2023-05-12T07:13:26.754Z,5.86
2023-05-12T07:14:26.805Z,6.83
2023-05-12T07:15:26.855Z,6.87
2023-05-12T07:16:26.927Z,6.65
2023-05-12T07:17:26.959Z,7.41
2023-05-12T07:18:26.982Z,7.12
2023-05-12T07:19:26.968Z,6.94
2023-05-12T07:20:27.027Z,6.41
2023-05-12T07:21:27.000Z,6.66
2023-05-12T07:22:27.007Z,6.36
2023-05-12T07:23:27.051Z,6.58
2023-05-12T07:24:27.164Z,6.63
2023-05-12T07:25:27.257Z,5.54
2023-05-12T07:26:27.183Z,6.76
2023-05-12T07:27:27.182Z,6.29
2023-05-12T07:28:27.182Z,6.56
2023-05-12T07:29:27.192Z,6.40
2023-05-12T07:30:27.253Z,5.84
2023-05-12T07:31:27.317Z,5.63
2023-05-12T07:32:27.352Z,5.61
2023-05-12T07:33:27.316Z,5.91
2023-05-12T07:34:27.344Z,6.44
2023-05-12T07:35:27.422Z,5.77
2023-05-12T07:36:27.492Z,5.68
2023-05-12T07:37:27.526Z,5.15
2023-05-12T07:38:27.566Z,4.47
2023-05-12T07:39:27.646Z,4.90
2023-05-12T07:40:27.588Z,5.16
2023-05-12T07:41:27.641Z,5.36
2023-05-12T07:42:27.643Z,4.64
2023-05-12T07:43:27.726Z,3.80
2023-05-12T07:44:27.761Z,4.02
2023-05-12T07:45:27.815Z,3.91
2023-05-12T07:46:27.870Z,3.31
2023-05-12T07:47:27.824Z,3.72
2023-05-12T07:48:27.864Z,4.21
2023-05-12T07:49:27.964Z,3.70
2023-05-12T07:50:27.978Z,3.91
2023-05-12T07:51:28.006Z,3.43
2023-05-12T07:52:28.062Z,3.32
2023-05-12T07:53:28.084Z,3.72
2023-05-12T07:54:28.088Z,3.16
2023-05-12T07:55:28.272Z,3.02
2023-05-12T07:56:28.137Z,3.19
2023-05-12T07:57:28.663Z,2.74
2023-05-12T07:58:28.218Z,3.29
2023-05-12T07:59:28.228Z,3.43
2023-05-12T08:00:28.273Z,3.86
2023-05-12T08:01:28.273Z,3.48
2023-05-12T08:02:28.356Z,3.96
2023-05-12T08:03:28.639Z,3.85
2023-05-12T08:04:28.439Z,3.69
2023-05-12T08:05:28.381Z,3.89
2023-05-12T08:06:28.375Z,3.71
2023-05-12T08:07:28.409Z,3.83
2023-05-12T08:08:28.442Z,3.25
2023-05-12T08:09:28.446Z,3.83
2023-05-12T08:10:28.472Z,3.87
2023-05-12T08:11:28.533Z,4.34
2023-05-12T08:12:28.611Z,4.20
2023-05-12T08:13:28.587Z,3.95
2023-05-12T08:14:28.646Z,3.71
2023-05-12T08:15:28.641Z,3.73
2023-05-12T08:16:28.686Z,3.28
2023-05-12T08:17:29.421Z,3.02
2023-05-12T08:18:28.725Z,2.98
2023-05-12T08:19:28.703Z,3.65
2023-05-12T08:20:28.734Z,2.94
2023-05-12T08:21:28.736Z,2.91
2023-05-12T08:22:28.761Z,2.05
2023-05-12T08:23:28.796Z,2.57
2023-05-12T08:24:28.867Z,2.70
2023-05-12T08:25:29.522Z,1.95
2023-05-12T08:26:29.153Z,2.46
2023-05-12T08:27:29.043Z,1.98
2023-05-12T08:28:29.009Z,2.08
2023-05-12T08:29:29.027Z,1.74
2023-05-12T08:30:29.054Z,2.39
2023-05-12T08:31:29.201Z,2.09
2023-05-12T08:32:29.169Z,2.50
2023-05-12T08:33:29.162Z,2.62
2023-05-12T08:34:29.164Z,2.21
2023-05-12T08:35:29.196Z,2.21
2023-05-12T08:36:29.298Z,2.10
2023-05-12T08:37:30.004Z,2.36
2023-05-12T08:38:29.225Z,1.60
2023-05-12T08:39:29.277Z,0.87
2023-05-12T08:40:29.270Z,0.83
2023-05-12T08:41:29.309Z,1.07
2023-05-12T08:42:29.348Z,1.17
2023-05-12T08:43:29.383Z,1.91
2023-05-12T08:44:29.419Z,1.78
2023-05-12T08:45:29.454Z,1.81
2023-05-12T08:46:29.482Z,1.95
2023-05-12T08:47:29.581Z,2.08
2023-05-12T08:48:29.553Z,1.93
2023-05-12T08:49:29.628Z,2.67
2023-05-12T08:50:29.592Z,2.61
2023-05-12T08:51:30.058Z,1.82
2023-05-12T08:52:29.660Z,2.24
2023-05-12T08:53:29.720Z,2.44
2023-05-12T08:54:29.759Z,2.41
2023-05-12T08:55:33.560Z,2.49
2023-05-12T08:57:30.116Z,2.20
2023-05-12T08:58:40.265Z,2.92
2023-05-12T08:59:30.776Z,2.64
2023-05-12T09:00:30.040Z,2.79
2023-05-12T09:01:29.778Z,2.05
2023-05-12T09:02:41.063Z,2.26
2023-05-12T09:03:30.764Z,2.21
2023-05-12T09:04:29.799Z,2.45
2023-05-12T09:05:29.746Z,1.89
2023-05-12T09:06:29.718Z,1.81
2023-05-12T09:07:29.759Z,1.67
2023-05-12T09:08:29.679Z,1.78
2023-05-12T09:09:29.685Z,1.86
2023-05-12T09:11:29.676Z,1.95
2023-05-12T09:12:29.675Z,2.25
2023-05-12T09:13:29.643Z,1.92
2023-05-12T09:14:29.686Z,2.20
2023-05-12T09:15:29.686Z,1.85
2023-05-12T09:16:29.689Z,2.15
2023-05-12T09:17:29.712Z,1.75
2023-05-12T09:18:29.747Z,1.39
2023-05-12T09:19:29.609Z,1.93
2023-05-12T09:20:31.820Z,2.04
2023-05-12T09:21:29.809Z,1.71
2023-05-12T09:22:29.857Z,1.76
2023-05-12T09:23:29.878Z,1.53
2023-05-12T09:24:29.897Z,1.97
2023-05-12T09:25:29.882Z,1.91
2023-05-12T09:26:30.534Z,1.86
2023-05-12T09:27:30.109Z,1.69
2023-05-12T09:28:30.059Z,1.77
2023-05-12T09:29:32.518Z,1.59
2023-05-12T09:30:30.083Z,1.43
2023-05-12T09:31:30.134Z,1.70
2023-05-12T09:32:30.069Z,1.63
2023-05-12T09:33:30.038Z,1.93
2023-05-12T09:34:30.072Z,1.68
2023-05-12T09:35:30.030Z,1.91
2023-05-12T09:36:30.028Z,2.04
2023-05-12T09:37:30.143Z,1.69
2023-05-12T09:38:30.042Z,1.74
2023-05-12T09:39:30.181Z,1.49
2023-05-12T09:40:30.018Z,1.63
2023-05-12T09:41:30.012Z,1.20
2023-05-12T09:42:30.009Z,1.55
2023-05-12T09:43:30.084Z,1.18
2023-05-12T09:44:30.029Z,1.00
2023-05-12T09:45:29.988Z,1.55
2023-05-12T09:46:30.084Z,1.09
2023-05-12T09:47:30.082Z,1.76
2023-05-12T09:48:30.046Z,1.56
2023-05-12T09:49:29.972Z,1.34
2023-05-12T09:50:37.425Z,1.39
2023-05-12T09:51:30.957Z,1.19
2023-05-12T09:52:29.940Z,1.21
2023-05-12T09:53:30.045Z,1.25
2023-05-12T09:54:29.910Z,1.29
2023-05-12T09:55:29.914Z,0.90
2023-05-12T09:56:29.921Z,1.23
2023-05-12T09:57:29.907Z,1.35
2023-05-12T09:58:29.890Z,1.33
2023-05-12T09:59:29.900Z,1.40
2023-05-12T10:00:41.168Z,1.06
2023-05-12T10:01:30.962Z,0.90
2023-05-12T10:02:30.034Z,1.07
2023-05-12T10:03:29.946Z,1.25
2023-05-12T10:04:29.879Z,1.09
2023-05-12T10:05:29.861Z,1.00
2023-05-12T10:06:29.842Z,1.23
2023-05-12T10:07:29.831Z,0.99
2023-05-12T10:08:29.820Z,1.23
2023-05-12T10:09:29.841Z,1.17
2023-05-12T10:10:30.054Z,1.21
2023-05-12T10:11:29.847Z,1.40
2023-05-12T10:12:29.809Z,1.13
2023-05-12T10:13:29.813Z,1.16
2023-05-12T10:14:29.794Z,1.32
2023-05-12T10:15:29.796Z,1.11
2023-05-12T10:16:29.817Z,1.01
2023-05-12T10:17:29.830Z,0.68
2023-05-12T10:18:29.853Z,0.78
2023-05-12T10:19:30.571Z,0.94
2023-05-12T10:20:29.909Z,0.85
2023-05-12T10:21:29.904Z,1.18
2023-05-12T10:22:29.921Z,1.25
2023-05-12T10:23:29.962Z,1.11
2023-05-12T10:24:30.040Z,0.93
2023-05-12T10:25:29.994Z,1.31
2023-05-12T10:26:30.026Z,1.19
2023-05-12T10:27:30.104Z,1.15
2023-05-12T10:28:30.104Z,1.25
2023-05-12T10:29:30.580Z,1.00
2023-05-12T10:30:30.229Z,1.13
2023-05-12T10:31:30.263Z,1.32
2023-05-12T10:32:30.249Z,1.38
2023-05-12T10:33:30.298Z,1.26
2023-05-12T10:34:30.300Z,1.18
2023-05-12T10:35:30.347Z,0.92
2023-05-12T10:36:30.352Z,1.04
2023-05-12T10:37:30.421Z,0.65
2023-05-12T10:38:30.437Z,1.03
2023-05-12T10:39:30.476Z,0.73
2023-05-12T10:40:30.480Z,0.74
2023-05-12T10:41:30.514Z,0.92
2023-05-12T10:42:30.554Z,1.00
2023-05-12T10:43:30.581Z,0.77
2023-05-12T10:44:30.659Z,1.10
2023-05-12T10:45:31.101Z,0.87
2023-05-12T10:46:30.932Z,1.24
2023-05-12T10:47:30.757Z,0.93
2023-05-12T10:48:30.753Z,0.82
2023-05-12T10:49:30.795Z,0.74
2023-05-12T10:50:30.817Z,0.76
2023-05-12T10:51:30.856Z,0.73
2023-05-12T10:52:30.927Z,0.66
2023-05-12T10:53:45.202Z,0.50
2023-05-12T10:54:31.891Z,0.36
2023-05-12T10:55:30.956Z,0.47
2023-05-12T10:56:31.108Z,0.38
2023-05-12T10:57:31.249Z,0.31
2023-05-12T10:58:31.162Z,0.25
2023-05-12T10:59:31.334Z,0.42
2023-05-12T11:00:31.406Z,0.27
2023-05-12T11:01:31.666Z,0.46
2023-05-12T11:02:32.073Z,0.21
2023-05-12T11:03:31.543Z,0.17
2023-05-12T11:04:30.930Z,0.31
2023-05-12T11:05:31.836Z,0.31
2023-05-12T11:07:31.189Z,0.19
2023-05-12T11:08:30.985Z,0.11
2023-05-12T11:09:31.261Z,0.28
2023-05-12T11:10:31.333Z,0.16
2023-05-12T11:11:31.334Z,0.15
2023-05-12T11:12:30.929Z,0.21
2023-05-12T11:13:30.951Z,0.21
2023-05-12T11:14:30.985Z,0.34
2023-05-12T11:15:31.018Z,0.17
2023-05-12T11:16:31.121Z,0.34
2023-05-12T11:17:31.625Z,0.29
2023-05-12T11:18:31.142Z,0.17
2023-05-12T11:19:31.193Z,0.25
2023-05-12T11:20:31.602Z,0.31
2023-05-12T11:21:31.227Z,0.36
2023-05-12T11:22:31.266Z,0.29
2023-05-12T11:23:31.413Z,0.17
2023-05-12T11:24:31.332Z,0.18
2023-05-12T11:25:31.621Z,0.25
2023-05-12T11:26:31.380Z,0.48
2023-05-12T11:27:31.418Z,0.23
2023-05-12T11:28:31.455Z,0.24
2023-05-12T11:29:31.481Z,0.27
2023-05-12T11:30:31.501Z,0.32
2023-05-12T11:31:31.540Z,0.53
2023-05-12T11:32:31.667Z,0.47
2023-05-12T11:33:31.557Z,0.54
2023-05-12T11:34:31.618Z,0.23
2023-05-12T11:35:31.675Z,0.40
2023-05-12T11:36:31.731Z,0.43
2023-05-12T11:37:31.768Z,0.29
2023-05-12T11:38:31.769Z,0.18
2023-05-12T11:39:31.774Z,0.18
2023-05-12T11:40:31.846Z,0.55
2023-05-12T11:41:31.841Z,0.19
2023-05-12T11:42:31.866Z,0.39
2023-05-12T11:43:31.906Z,0.27
2023-05-12T11:44:31.898Z,0.31
2023-05-12T11:45:31.978Z,0.26
2023-05-12T11:46:32.065Z,0.33
2023-05-12T11:47:32.031Z,0.19
2023-05-12T11:48:32.042Z,0.33
2023-05-12T11:49:32.102Z,0.28
2023-05-12T11:50:32.161Z,0.35
2023-05-12T11:51:32.174Z,0.26
2023-05-12T11:52:32.216Z,0.32
2023-05-12T11:53:32.246Z,0.27
2023-05-12T11:54:32.273Z,0.34
2023-05-12T11:55:32.294Z,0.09
2023-05-12T11:56:32.283Z,0.24
2023-05-12T11:57:32.556Z,0.32
2023-05-12T11:58:33.078Z,0.35
2023-05-12T11:59:32.420Z,0.36
2023-05-12T12:00:32.469Z,0.41
2023-05-12T12:01:32.479Z,0.39
2023-05-12T12:02:32.662Z,0.17
2023-05-12T12:03:32.563Z,0.33
2023-05-12T12:04:33.598Z,0.19
2023-05-12T12:05:32.605Z,0.37
2023-05-12T12:06:32.632Z,0.34
2023-05-12T12:07:32.698Z,0.15
2023-05-12T12:08:32.736Z,0.21
2023-05-12T12:09:32.738Z,0.23
2023-05-12T12:10:32.821Z,0.33
2023-05-12T12:11:32.923Z,0.27
2023-05-12T12:12:32.870Z,0.33
2023-05-12T12:13:32.893Z,0.39
2023-05-12T12:14:32.839Z,0.42
2023-05-12T12:15:32.898Z,0.23
2023-05-12T12:16:33.004Z,0.23
2023-05-12T12:17:32.937Z,0.29
2023-05-12T12:18:33.059Z,0.20
2023-05-12T12:19:33.000Z,0.26
2023-05-12T12:20:33.061Z,0.16
2023-05-12T12:21:33.074Z,0.25
2023-05-12T12:22:33.105Z,0.35
2023-05-12T12:23:40.641Z,0.22
2023-05-12T12:24:34.143Z,0.21
2023-05-12T12:25:33.126Z,0.30
2023-05-12T12:26:33.159Z,0.29
2023-05-12T12:27:33.103Z,0.29
2023-05-12T12:28:33.106Z,0.29
2023-05-12T12:29:33.119Z,0.27
2023-05-12T12:30:33.077Z,0.29
2023-05-12T12:31:33.139Z,0.28
2023-05-12T12:32:33.087Z,0.21
2023-05-12T12:33:33.067Z,0.19
2023-05-12T12:34:33.055Z,0.13
2023-05-12T12:35:33.074Z,0.28
2023-05-12T12:36:33.096Z,0.28
2023-05-12T12:37:33.084Z,0.23
2023-05-12T12:38:33.080Z,0.18
2023-05-12T12:39:33.140Z,0.22
2023-05-12T12:40:33.142Z,0.44
2023-05-12T12:41:33.203Z,0.19
2023-05-12T12:42:33.191Z,0.27
2023-05-12T12:43:33.210Z,0.20
2023-05-12T12:44:33.219Z,0.72
2023-05-12T12:45:33.240Z,0.25
2023-05-12T12:46:33.330Z,0.41
2023-05-12T12:47:33.360Z,0.36
2023-05-12T12:48:33.363Z,0.30
2023-05-12T12:49:33.414Z,0.32
2023-05-12T12:50:33.456Z,0.37
2023-05-12T12:51:45.189Z,0.25
2023-05-12T12:52:34.465Z,0.47
2023-05-12T12:53:33.408Z,0.33
2023-05-12T12:54:33.404Z,0.34
2023-05-12T12:55:33.441Z,0.54
2023-05-12T12:56:33.387Z,0.19
2023-05-12T12:57:33.414Z,0.25
2023-05-12T12:58:33.392Z,0.28
2023-05-12T12:59:33.402Z,0.34
2023-05-12T13:00:33.368Z,0.43
2023-05-12T13:01:33.442Z,0.37
2023-05-12T13:02:33.566Z,0.57
2023-05-12T13:03:33.421Z,0.29
2023-05-12T13:04:33.365Z,0.33
2023-05-12T13:05:33.392Z,0.35
2023-05-12T13:06:33.427Z,0.27
2023-05-12T13:07:33.483Z,0.27
2023-05-12T13:08:33.552Z,0.30
2023-05-12T13:09:33.505Z,0.29
2023-05-12T13:10:33.573Z,0.42
2023-05-12T13:11:33.582Z,0.26
2023-05-12T13:12:33.584Z,0.40
2023-05-12T13:13:33.668Z,0.40
2023-05-12T13:14:33.714Z,0.43
2023-05-12T13:15:33.752Z,0.35
2023-05-12T13:16:33.769Z,0.47
2023-05-12T13:17:33.821Z,0.30
2023-05-12T13:18:33.858Z,0.51